sensor_id;sensor_type;location;lat;lon;timestamp;temperature;humidity
37646;DHT22;23489;49.600;6.138;2023-03-21T00:00:25;8.10;99.90
37646;DHT22;23489;49.600;6.138;2023-03-21T00:02:51;8.10;99.90
37646;DHT22;23489;49.600;6.138;2023-03-21T00:05:17;8.10;99.90
37646;DHT22;23489;49.600;6.138;2023-03-21T00:07:45;8.00;99.90
37646;DHT22;23489;49.600;6.138;2023-03-21T00:10:11;8.00;99.90
37646;DHT22;23489;49.600;6.138;2023-03-21T00:12:36;8.00;99.90
37646;DHT22;23489;49.600;6.138;2023-03-21T00:15:04;8.00;99.90
37646;DHT22;23489;49.600;6.138;2023-03-21T00:17:31;7.90;99.90
37646;DHT22;23489;49.600;6.138;2023-03-21T00:20:01;8.00;99.90
37646;DHT22;23489;49.600;6.138;2023-03-21T00:22:30;8.00;99.90
37646;DHT22;23489;49.600;6.138;2023-03-21T00:24:56;8.00;99.90
37646;DHT22;23489;49.600;6.138;2023-03-21T00:27:22;8.00;99.90
37646;DHT22;23489;49.600;6.138;2023-03-21T00:29:48;8.00;99.90
37646;DHT22;23489;49.600;6.138;2023-03-21T00:32:17;8.00;99.90
37646;DHT22;23489;49.600;6.138;2023-03-21T00:34:46;8.00;99.90
37646;DHT22;23489;49.600;6.138;2023-03-21T00:37:14;8.00;99.90
37646;DHT22;23489;49.600;6.138;2023-03-21T00:39:43;8.00;99.90
37646;DHT22;23489;49.600;6.138;2023-03-21T00:42:12;8.00;99.90
37646;DHT22;23489;49.600;6.138;2023-03-21T00:44:38;8.00;99.90
37646;DHT22;23489;49.600;6.138;2023-03-21T00:47:05;8.00;99.90
37646;DHT22;23489;49.600;6.138;2023-03-21T00:49:33;8.00;99.90
37646;DHT22;23489;49.600;6.138;2023-03-21T00:52:02;7.90;99.90
37646;DHT22;23489;49.600;6.138;2023-03-21T00:54:30;7.90;99.90
37646;DHT22;23489;49.600;6.138;2023-03-21T00:56:55;7.90;99.90
37646;DHT22;23489;49.600;6.138;2023-03-21T00:59:21;7.90;99.90
37646;DHT22;23489;49.600;6.138;2023-03-21T01:01:47;7.90;99.90
37646;DHT22;23489;49.600;6.138;2023-03-21T01:04:13;7.90;99.90
37646;DHT22;23489;49.600;6.138;2023-03-21T01:06:42;7.80;99.90
37646;DHT22;23489;49.600;6.138;2023-03-21T01:09:14;7.80;99.90
37646;DHT22;23489;49.600;6.138;2023-03-21T01:11:41;7.80;99.90
37646;DHT22;23489;49.600;6.138;2023-03-21T01:14:07;7.80;99.90
37646;DHT22;23489;49.600;6.138;2023-03-21T01:16:33;7.70;99.90
37646;DHT22;23489;49.600;6.138;2023-03-21T01:18:59;7.70;99.90
37646;DHT22;23489;49.600;6.138;2023-03-21T01:21:27;7.70;99.90
37646;DHT22;23489;49.600;6.138;2023-03-21T01:23:52;7.70;99.90
37646;DHT22;23489;49.600;6.138;2023-03-21T01:26:18;7.70;99.90
37646;DHT22;23489;49.600;6.138;2023-03-21T01:28:44;7.70;99.90
37646;DHT22;23489;49.600;6.138;2023-03-21T01:31:15;7.60;99.90
37646;DHT22;23489;49.600;6.138;2023-03-21T01:33:42;7.60;99.90
37646;DHT22;23489;49.600;6.138;2023-03-21T01:36:14;7.60;99.90
37646;DHT22;23489;49.600;6.138;2023-03-21T01:38:42;7.70;99.90
37646;DHT22;23489;49.600;6.138;2023-03-21T01:41:20;7.70;99.90
37646;DHT22;23489;49.600;6.138;2023-03-21T01:43:49;7.60;99.90
37646;DHT22;23489;49.600;6.138;2023-03-21T01:46:55;7.60;99.90
37646;DHT22;23489;49.600;6.138;2023-03-21T01:49:35;7.60;99.90
37646;DHT22;23489;49.600;6.138;2023-03-21T01:52:11;7.60;99.90
37646;DHT22;23489;49.600;6.138;2023-03-21T01:54:40;7.60;99.90
37646;DHT22;23489;49.600;6.138;2023-03-21T01:57:12;7.60;99.90
37646;DHT22;23489;49.600;6.138;2023-03-21T01:59:49;7.60;99.90
37646;DHT22;23489;49.600;6.138;2023-03-21T02:02:35;7.70;99.90
37646;DHT22;23489;49.600;6.138;2023-03-21T02:05:36;7.70;99.90
37646;DHT22;23489;49.600;6.138;2023-03-21T02:08:05;7.80;99.90
37646;DHT22;23489;49.600;6.138;2023-03-21T02:10:31;7.70;99.90
37646;DHT22;23489;49.600;6.138;2023-03-21T02:13:02;7.70;99.90
37646;DHT22;23489;49.600;6.138;2023-03-21T02:15:41;7.70;99.90
37646;DHT22;23489;49.600;6.138;2023-03-21T02:27:06;7.70;99.90
37646;DHT22;23489;49.600;6.138;2023-03-21T02:33:00;7.70;99.90
37646;DHT22;23489;49.600;6.138;2023-03-21T02:44:00;7.70;99.90
37646;DHT22;23489;49.600;6.138;2023-03-21T02:46:31;7.60;99.90
37646;DHT22;23489;49.600;6.138;2023-03-21T02:49:13;7.60;99.90
37646;DHT22;23489;49.600;6.138;2023-03-21T02:51:42;7.60;99.90
37646;DHT22;23489;49.600;6.138;2023-03-21T02:54:16;7.60;99.90
37646;DHT22;23489;49.600;6.138;2023-03-21T02:56:44;7.60;99.90
37646;DHT22;23489;49.600;6.138;2023-03-21T02:59:12;7.60;99.90
37646;DHT22;23489;49.600;6.138;2023-03-21T03:01:39;7.60;99.90
37646;DHT22;23489;49.600;6.138;2023-03-21T03:04:23;7.60;99.90
37646;DHT22;23489;49.600;6.138;2023-03-21T03:07:13;7.60;99.90
37646;DHT22;23489;49.600;6.138;2023-03-21T03:12:48;7.50;99.90
37646;DHT22;23489;49.600;6.138;2023-03-21T03:18:19;7.50;99.90
37646;DHT22;23489;49.600;6.138;2023-03-21T03:21:27;7.60;99.90
37646;DHT22;23489;49.600;6.138;2023-03-21T03:24:16;7.60;99.90
37646;DHT22;23489;49.600;6.138;2023-03-21T03:27:01;7.60;99.90
37646;DHT22;23489;49.600;6.138;2023-03-21T03:29:31;7.60;99.90
37646;DHT22;23489;49.600;6.138;2023-03-21T03:34:50;7.60;99.90
37646;DHT22;23489;49.600;6.138;2023-03-21T03:37:32;7.60;99.90
37646;DHT22;23489;49.600;6.138;2023-03-21T03:40:10;7.50;99.90
37646;DHT22;23489;49.600;6.138;2023-03-21T03:42:55;7.50;99.90
37646;DHT22;23489;49.600;6.138;2023-03-21T03:45:38;7.50;99.90
37646;DHT22;23489;49.600;6.138;2023-03-21T03:50:46;7.40;99.90
37646;DHT22;23489;49.600;6.138;2023-03-21T03:53:25;7.40;99.90
37646;DHT22;23489;49.600;6.138;2023-03-21T03:55:55;7.40;99.90
37646;DHT22;23489;49.600;6.138;2023-03-21T03:58:23;7.40;99.90
37646;DHT22;23489;49.600;6.138;2023-03-21T04:00:52;7.30;99.90
37646;DHT22;23489;49.600;6.138;2023-03-21T04:03:20;7.30;99.90
37646;DHT22;23489;49.600;6.138;2023-03-21T04:05:47;7.30;99.90
37646;DHT22;23489;49.600;6.138;2023-03-21T04:08:14;7.30;99.90
37646;DHT22;23489;49.600;6.138;2023-03-21T04:10:43;7.30;99.90
37646;DHT22;23489;49.600;6.138;2023-03-21T04:13:09;7.30;99.90
37646;DHT22;23489;49.600;6.138;2023-03-21T04:15:43;7.30;99.90
37646;DHT22;23489;49.600;6.138;2023-03-21T04:18:13;7.30;99.90
37646;DHT22;23489;49.600;6.138;2023-03-21T04:20:39;7.20;99.90
37646;DHT22;23489;49.600;6.138;2023-03-21T04:23:06;7.20;99.90
37646;DHT22;23489;49.600;6.138;2023-03-21T04:25:36;7.20;99.90
37646;DHT22;23489;49.600;6.138;2023-03-21T04:28:03;7.20;99.90
37646;DHT22;23489;49.600;6.138;2023-03-21T04:30:38;7.10;99.90
37646;DHT22;23489;49.600;6.138;2023-03-21T04:33:09;7.20;99.90
37646;DHT22;23489;49.600;6.138;2023-03-21T04:35:35;7.20;99.90
37646;DHT22;23489;49.600;6.138;2023-03-21T04:38:02;7.10;99.90
37646;DHT22;23489;49.600;6.138;2023-03-21T04:40:28;7.20;99.90
37646;DHT22;23489;49.600;6.138;2023-03-21T04:42:54;7.10;99.90
37646;DHT22;23489;49.600;6.138;2023-03-21T04:45:20;7.10;99.90
37646;DHT22;23489;49.600;6.138;2023-03-21T04:47:46;7.10;99.90
37646;DHT22;23489;49.600;6.138;2023-03-21T04:50:12;7.10;99.90
37646;DHT22;23489;49.600;6.138;2023-03-21T04:52:38;7.10;99.90
37646;DHT22;23489;49.600;6.138;2023-03-21T04:55:05;7.10;99.90
37646;DHT22;23489;49.600;6.138;2023-03-21T04:57:37;7.00;99.90
37646;DHT22;23489;49.600;6.138;2023-03-21T05:00:05;7.10;99.90
37646;DHT22;23489;49.600;6.138;2023-03-21T05:02:41;7.10;99.90
37646;DHT22;23489;49.600;6.138;2023-03-21T05:05:07;7.00;99.90
37646;DHT22;23489;49.600;6.138;2023-03-21T05:07:37;7.00;99.90
37646;DHT22;23489;49.600;6.138;2023-03-21T05:10:04;7.00;99.90
37646;DHT22;23489;49.600;6.138;2023-03-21T05:12:30;7.00;99.90
37646;DHT22;23489;49.600;6.138;2023-03-21T05:14:56;7.00;99.90
37646;DHT22;23489;49.600;6.138;2023-03-21T05:17:21;7.00;99.90
37646;DHT22;23489;49.600;6.138;2023-03-21T05:19:50;6.90;99.90
37646;DHT22;23489;49.600;6.138;2023-03-21T05:22:18;7.00;99.90
37646;DHT22;23489;49.600;6.138;2023-03-21T05:24:45;7.00;99.90
37646;DHT22;23489;49.600;6.138;2023-03-21T05:27:21;7.00;99.90
37646;DHT22;23489;49.600;6.138;2023-03-21T05:30:04;7.00;99.90
37646;DHT22;23489;49.600;6.138;2023-03-21T05:32:32;7.00;99.90
37646;DHT22;23489;49.600;6.138;2023-03-21T05:34:59;7.00;99.90
37646;DHT22;23489;49.600;6.138;2023-03-21T05:37:26;6.90;99.90
37646;DHT22;23489;49.600;6.138;2023-03-21T05:39:51;7.00;99.90
37646;DHT22;23489;49.600;6.138;2023-03-21T05:42:24;6.90;99.90
37646;DHT22;23489;49.600;6.138;2023-03-21T05:44:51;6.90;99.90
37646;DHT22;23489;49.600;6.138;2023-03-21T05:47:21;6.90;99.90
37646;DHT22;23489;49.600;6.138;2023-03-21T05:49:50;6.90;99.90
37646;DHT22;23489;49.600;6.138;2023-03-21T05:52:17;6.90;99.90
37646;DHT22;23489;49.600;6.138;2023-03-21T05:54:44;6.90;99.90
37646;DHT22;23489;49.600;6.138;2023-03-21T05:57:10;6.90;99.90
37646;DHT22;23489;49.600;6.138;2023-03-21T05:59:54;7.00;99.90
37646;DHT22;23489;49.600;6.138;2023-03-21T06:02:20;7.00;99.90
37646;DHT22;23489;49.600;6.138;2023-03-21T06:04:46;7.00;99.90
37646;DHT22;23489;49.600;6.138;2023-03-21T06:07:12;7.00;99.90
37646;DHT22;23489;49.600;6.138;2023-03-21T06:09:39;7.00;99.90
37646;DHT22;23489;49.600;6.138;2023-03-21T06:12:06;7.00;99.90
37646;DHT22;23489;49.600;6.138;2023-03-21T06:14:43;7.00;99.90
37646;DHT22;23489;49.600;6.138;2023-03-21T06:17:19;7.00;99.90
37646;DHT22;23489;49.600;6.138;2023-03-21T06:19:50;7.00;99.90
37646;DHT22;23489;49.600;6.138;2023-03-21T06:22:27;6.90;99.90
37646;DHT22;23489;49.600;6.138;2023-03-21T06:24:53;7.00;99.90
37646;DHT22;23489;49.600;6.138;2023-03-21T06:27:19;6.90;99.90
37646;DHT22;23489;49.600;6.138;2023-03-21T06:29:51;6.90;99.90
37646;DHT22;23489;49.600;6.138;2023-03-21T06:32:17;6.90;99.90
37646;DHT22;23489;49.600;6.138;2023-03-21T06:34:44;6.90;99.90
37646;DHT22;23489;49.600;6.138;2023-03-21T06:37:13;7.00;99.90
37646;DHT22;23489;49.600;6.138;2023-03-21T06:39:39;7.00;99.90
37646;DHT22;23489;49.600;6.138;2023-03-21T06:42:07;7.00;99.90
37646;DHT22;23489;49.600;6.138;2023-03-21T06:44:32;7.00;99.90
37646;DHT22;23489;49.600;6.138;2023-03-21T06:47:03;7.00;99.90
37646;DHT22;23489;49.600;6.138;2023-03-21T06:49:29;7.10;99.90
37646;DHT22;23489;49.600;6.138;2023-03-21T06:51:58;7.10;99.90
37646;DHT22;23489;49.600;6.138;2023-03-21T06:54:24;7.10;99.90
37646;DHT22;23489;49.600;6.138;2023-03-21T06:56:56;7.10;99.90
37646;DHT22;23489;49.600;6.138;2023-03-21T06:59:26;7.20;99.90
37646;DHT22;23489;49.600;6.138;2023-03-21T07:02:02;7.20;99.90
37646;DHT22;23489;49.600;6.138;2023-03-21T07:04:29;7.20;99.90
37646;DHT22;23489;49.600;6.138;2023-03-21T07:06:56;7.20;99.90
37646;DHT22;23489;49.600;6.138;2023-03-21T07:09:22;7.30;99.90
37646;DHT22;23489;49.600;6.138;2023-03-21T07:11:53;7.30;99.90
37646;DHT22;23489;49.600;6.138;2023-03-21T07:14:23;7.40;99.90
37646;DHT22;23489;49.600;6.138;2023-03-21T07:16:48;7.40;99.90
37646;DHT22;23489;49.600;6.138;2023-03-21T07:19:14;7.50;99.90
37646;DHT22;23489;49.600;6.138;2023-03-21T07:21:41;7.60;99.90
37646;DHT22;23489;49.600;6.138;2023-03-21T07:24:07;7.50;99.90
37646;DHT22;23489;49.600;6.138;2023-03-21T07:26:34;7.50;99.90
37646;DHT22;23489;49.600;6.138;2023-03-21T07:29:01;7.50;99.90
37646;DHT22;23489;49.600;6.138;2023-03-21T07:31:27;7.50;99.90
37646;DHT22;23489;49.600;6.138;2023-03-21T07:33:54;7.40;99.90
37646;DHT22;23489;49.600;6.138;2023-03-21T07:36:21;7.40;99.90
37646;DHT22;23489;49.600;6.138;2023-03-21T07:38:47;7.30;99.90
37646;DHT22;23489;49.600;6.138;2023-03-21T07:41:14;7.30;99.90
37646;DHT22;23489;49.600;6.138;2023-03-21T07:43:39;7.30;99.90
37646;DHT22;23489;49.600;6.138;2023-03-21T07:46:08;7.30;99.90
37646;DHT22;23489;49.600;6.138;2023-03-21T07:48:34;7.30;99.90
37646;DHT22;23489;49.600;6.138;2023-03-21T07:51:00;7.30;99.90
37646;DHT22;23489;49.600;6.138;2023-03-21T07:53:26;7.40;99.90
37646;DHT22;23489;49.600;6.138;2023-03-21T07:55:53;7.40;99.90
37646;DHT22;23489;49.600;6.138;2023-03-21T07:58:22;7.40;99.90
37646;DHT22;23489;49.600;6.138;2023-03-21T08:00:48;7.50;99.90
37646;DHT22;23489;49.600;6.138;2023-03-21T08:03:13;7.50;99.90
37646;DHT22;23489;49.600;6.138;2023-03-21T08:05:39;7.70;99.90
37646;DHT22;23489;49.600;6.138;2023-03-21T08:08:06;7.70;99.90
37646;DHT22;23489;49.600;6.138;2023-03-21T08:10:32;7.80;99.90
37646;DHT22;23489;49.600;6.138;2023-03-21T08:12:58;7.80;99.90
37646;DHT22;23489;49.600;6.138;2023-03-21T08:15:24;8.00;99.90
37646;DHT22;23489;49.600;6.138;2023-03-21T08:17:49;8.30;99.90
37646;DHT22;23489;49.600;6.138;2023-03-21T08:20:18;8.50;99.90
37646;DHT22;23489;49.600;6.138;2023-03-21T08:22:45;8.60;99.90
37646;DHT22;23489;49.600;6.138;2023-03-21T08:25:12;8.80;99.90
37646;DHT22;23489;49.600;6.138;2023-03-21T08:27:39;8.80;99.90
37646;DHT22;23489;49.600;6.138;2023-03-21T08:30:06;8.90;99.90
37646;DHT22;23489;49.600;6.138;2023-03-21T08:32:32;9.00;99.90
37646;DHT22;23489;49.600;6.138;2023-03-21T08:35:02;9.00;99.90
37646;DHT22;23489;49.600;6.138;2023-03-21T08:37:28;9.00;99.90
37646;DHT22;23489;49.600;6.138;2023-03-21T08:39:54;8.90;99.90
37646;DHT22;23489;49.600;6.138;2023-03-21T08:42:20;8.80;99.90
37646;DHT22;23489;49.600;6.138;2023-03-21T08:44:47;8.80;99.90
37646;DHT22;23489;49.600;6.138;2023-03-21T08:47:13;8.80;99.90
37646;DHT22;23489;49.600;6.138;2023-03-21T08:49:39;8.90;99.90
37646;DHT22;23489;49.600;6.138;2023-03-21T08:52:06;9.10;99.90
37646;DHT22;23489;49.600;6.138;2023-03-21T08:54:31;9.20;99.90
37646;DHT22;23489;49.600;6.138;2023-03-21T08:56:57;9.40;99.90
37646;DHT22;23489;49.600;6.138;2023-03-21T08:59:23;9.60;99.90
37646;DHT22;23489;49.600;6.138;2023-03-21T09:01:48;9.60;99.90
37646;DHT22;23489;49.600;6.138;2023-03-21T09:04:14;9.60;99.90
37646;DHT22;23489;49.600;6.138;2023-03-21T09:06:43;9.60;99.90
37646;DHT22;23489;49.600;6.138;2023-03-21T09:09:10;9.50;99.90
37646;DHT22;23489;49.600;6.138;2023-03-21T09:11:37;9.40;99.90
37646;DHT22;23489;49.600;6.138;2023-03-21T09:14:02;9.40;99.90
37646;DHT22;23489;49.600;6.138;2023-03-21T09:16:28;9.40;99.90
37646;DHT22;23489;49.600;6.138;2023-03-21T09:18:54;9.40;99.90
37646;DHT22;23489;49.600;6.138;2023-03-21T09:21:24;9.40;99.90
37646;DHT22;23489;49.600;6.138;2023-03-21T09:23:51;9.40;99.90
37646;DHT22;23489;49.600;6.138;2023-03-21T09:26:19;9.50;99.90
37646;DHT22;23489;49.600;6.138;2023-03-21T09:28:46;9.60;99.90
37646;DHT22;23489;49.600;6.138;2023-03-21T09:31:12;9.70;99.90
37646;DHT22;23489;49.600;6.138;2023-03-21T09:33:41;9.70;99.90
37646;DHT22;23489;49.600;6.138;2023-03-21T09:36:09;9.80;99.90
37646;DHT22;23489;49.600;6.138;2023-03-21T09:38:39;9.90;99.90
37646;DHT22;23489;49.600;6.138;2023-03-21T09:46:49;10.20;99.90
37646;DHT22;23489;49.600;6.138;2023-03-21T09:49:22;10.30;99.90
37646;DHT22;23489;49.600;6.138;2023-03-21T09:51:53;10.40;99.90
37646;DHT22;23489;49.600;6.138;2023-03-21T09:54:21;10.40;99.90
37646;DHT22;23489;49.600;6.138;2023-03-21T09:56:48;10.30;99.90
37646;DHT22;23489;49.600;6.138;2023-03-21T09:59:24;10.20;99.90
37646;DHT22;23489;49.600;6.138;2023-03-21T10:01:52;10.30;99.90
37646;DHT22;23489;49.600;6.138;2023-03-21T10:04:20;10.20;99.90
37646;DHT22;23489;49.600;6.138;2023-03-21T10:06:54;10.00;99.90
37646;DHT22;23489;49.600;6.138;2023-03-21T10:09:22;10.00;99.90
37646;DHT22;23489;49.600;6.138;2023-03-21T10:12:02;9.80;99.90
37646;DHT22;23489;49.600;6.138;2023-03-21T10:14:36;9.70;99.90
37646;DHT22;23489;49.600;6.138;2023-03-21T10:19:36;9.50;99.90
37646;DHT22;23489;49.600;6.138;2023-03-21T10:22:01;9.50;99.90
37646;DHT22;23489;49.600;6.138;2023-03-21T10:24:28;9.60;99.90
37646;DHT22;23489;49.600;6.138;2023-03-21T10:26:56;9.60;99.90
37646;DHT22;23489;49.600;6.138;2023-03-21T10:29:45;9.40;99.90
37646;DHT22;23489;49.600;6.138;2023-03-21T10:32:13;9.30;99.90
37646;DHT22;23489;49.600;6.138;2023-03-21T10:34:43;9.40;99.90
37646;DHT22;23489;49.600;6.138;2023-03-21T10:37:11;9.50;99.90
37646;DHT22;23489;49.600;6.138;2023-03-21T10:39:40;9.50;99.90
37646;DHT22;23489;49.600;6.138;2023-03-21T10:42:20;9.50;99.90
37646;DHT22;23489;49.600;6.138;2023-03-21T10:44:50;9.50;99.90
37646;DHT22;23489;49.600;6.138;2023-03-21T10:47:30;9.70;99.90
37646;DHT22;23489;49.600;6.138;2023-03-21T10:50:06;9.90;99.90
37646;DHT22;23489;49.600;6.138;2023-03-21T10:52:32;10.10;99.90
37646;DHT22;23489;49.600;6.138;2023-03-21T10:55:29;10.20;99.90
37646;DHT22;23489;49.600;6.138;2023-03-21T10:58:04;10.20;99.90
37646;DHT22;23489;49.600;6.138;2023-03-21T11:00:40;10.10;99.90
37646;DHT22;23489;49.600;6.138;2023-03-21T11:03:20;10.00;99.90
37646;DHT22;23489;49.600;6.138;2023-03-21T11:05:51;10.10;99.90
37646;DHT22;23489;49.600;6.138;2023-03-21T11:08:18;10.30;99.90
37646;DHT22;23489;49.600;6.138;2023-03-21T11:10:52;10.50;99.90
37646;DHT22;23489;49.600;6.138;2023-03-21T11:13:23;10.70;99.90
37646;DHT22;23489;49.600;6.138;2023-03-21T11:16:02;11.00;99.90
37646;DHT22;23489;49.600;6.138;2023-03-21T11:18:30;11.30;99.90
37646;DHT22;23489;49.600;6.138;2023-03-21T11:21:07;11.30;99.90
37646;DHT22;23489;49.600;6.138;2023-03-21T11:23:38;11.40;99.90
37646;DHT22;23489;49.600;6.138;2023-03-21T11:26:15;11.30;99.90
37646;DHT22;23489;49.600;6.138;2023-03-21T11:28:41;11.10;99.90
37646;DHT22;23489;49.600;6.138;2023-03-21T11:31:09;11.10;99.90
37646;DHT22;23489;49.600;6.138;2023-03-21T11:33:41;11.10;99.90
37646;DHT22;23489;49.600;6.138;2023-03-21T11:38:56;11.20;99.90
37646;DHT22;23489;49.600;6.138;2023-03-21T11:41:28;11.10;99.90
37646;DHT22;23489;49.600;6.138;2023-03-21T11:43:55;10.80;99.90
37646;DHT22;23489;49.600;6.138;2023-03-21T11:46:26;10.60;99.90
37646;DHT22;23489;49.600;6.138;2023-03-21T11:48:51;10.60;99.90
37646;DHT22;23489;49.600;6.138;2023-03-21T11:56:49;10.50;99.90
37646;DHT22;23489;49.600;6.138;2023-03-21T12:02:27;10.70;99.90
37646;DHT22;23489;49.600;6.138;2023-03-21T12:05:18;10.90;99.90
37646;DHT22;23489;49.600;6.138;2023-03-21T12:13:28;11.70;99.90
37646;DHT22;23489;49.600;6.138;2023-03-21T12:24:25;12.10;99.90
37646;DHT22;23489;49.600;6.138;2023-03-21T12:29:58;12.30;99.90
37646;DHT22;23489;49.600;6.138;2023-03-21T12:35:36;12.40;99.90
37646;DHT22;23489;49.600;6.138;2023-03-21T12:38:12;12.30;99.90
37646;DHT22;23489;49.600;6.138;2023-03-21T12:43:42;12.10;99.90
37646;DHT22;23489;49.600;6.138;2023-03-21T12:48:59;11.90;99.90
37646;DHT22;23489;49.600;6.138;2023-03-21T12:51:29;12.00;99.90
37646;DHT22;23489;49.600;6.138;2023-03-21T12:54:17;12.10;99.90
37646;DHT22;23489;49.600;6.138;2023-03-21T12:57:09;12.10;99.90
37646;DHT22;23489;49.600;6.138;2023-03-21T13:02:28;12.30;99.90
37646;DHT22;23489;49.600;6.138;2023-03-21T13:05:08;12.50;99.90
37646;DHT22;23489;49.600;6.138;2023-03-21T13:07:42;12.60;99.90
37646;DHT22;23489;49.600;6.138;2023-03-21T13:10:14;12.80;99.90
37646;DHT22;23489;49.600;6.138;2023-03-21T13:12:54;13.10;99.90
37646;DHT22;23489;49.600;6.138;2023-03-21T13:18:03;13.50;99.90
37646;DHT22;23489;49.600;6.138;2023-03-21T13:20:45;13.50;99.90
37646;DHT22;23489;49.600;6.138;2023-03-21T13:23:11;13.70;99.90
37646;DHT22;23489;49.600;6.138;2023-03-21T13:25:45;13.80;99.90
37646;DHT22;23489;49.600;6.138;2023-03-21T13:28:27;13.80;99.90
37646;DHT22;23489;49.600;6.138;2023-03-21T13:31:14;13.80;99.90
37646;DHT22;23489;49.600;6.138;2023-03-21T13:33:41;13.90;99.90
37646;DHT22;23489;49.600;6.138;2023-03-21T13:36:15;14.00;99.90
37646;DHT22;23489;49.600;6.138;2023-03-21T13:38:49;14.20;99.90
37646;DHT22;23489;49.600;6.138;2023-03-21T13:41:21;14.20;99.90
37646;DHT22;23489;49.600;6.138;2023-03-21T13:54:16;14.60;99.90
37646;DHT22;23489;49.600;6.138;2023-03-21T13:59:13;14.70;99.90
37646;DHT22;23489;49.600;6.138;2023-03-21T14:04:29;14.80;99.90
37646;DHT22;23489;49.600;6.138;2023-03-21T14:07:02;14.90;99.90
37646;DHT22;23489;49.600;6.138;2023-03-21T14:09:38;14.90;99.90
37646;DHT22;23489;49.600;6.138;2023-03-21T14:12:08;15.00;99.90
37646;DHT22;23489;49.600;6.138;2023-03-21T14:14:42;14.80;99.90
37646;DHT22;23489;49.600;6.138;2023-03-21T14:17:22;14.60;99.90
37646;DHT22;23489;49.600;6.138;2023-03-21T14:19:52;14.60;99.90
37646;DHT22;23489;49.600;6.138;2023-03-21T14:22:18;14.70;99.90
37646;DHT22;23489;49.600;6.138;2023-03-21T14:24:58;14.60;99.90
37646;DHT22;23489;49.600;6.138;2023-03-21T14:27:28;14.60;99.90
37646;DHT22;23489;49.600;6.138;2023-03-21T14:29:55;14.60;99.90
37646;DHT22;23489;49.600;6.138;2023-03-21T14:32:25;14.60;99.90
37646;DHT22;23489;49.600;6.138;2023-03-21T14:34:52;14.70;99.90
37646;DHT22;23489;49.600;6.138;2023-03-21T14:37:30;14.70;99.90
37646;DHT22;23489;49.600;6.138;2023-03-21T14:40:15;14.50;99.90
37646;DHT22;23489;49.600;6.138;2023-03-21T14:42:46;14.40;99.90
37646;DHT22;23489;49.600;6.138;2023-03-21T14:45:19;14.30;99.90
37646;DHT22;23489;49.600;6.138;2023-03-21T14:48:14;14.20;99.90
37646;DHT22;23489;49.600;6.138;2023-03-21T14:50:47;14.20;99.90
37646;DHT22;23489;49.600;6.138;2023-03-21T14:53:17;14.20;99.90
37646;DHT22;23489;49.600;6.138;2023-03-21T14:55:48;14.10;99.90
37646;DHT22;23489;49.600;6.138;2023-03-21T14:58:15;14.00;99.90
37646;DHT22;23489;49.600;6.138;2023-03-21T15:00:47;14.00;99.90
37646;DHT22;23489;49.600;6.138;2023-03-21T15:03:15;14.00;99.90
37646;DHT22;23489;49.600;6.138;2023-03-21T15:05:41;14.00;99.90
37646;DHT22;23489;49.600;6.138;2023-03-21T15:10:36;14.20;99.90
37646;DHT22;23489;49.600;6.138;2023-03-21T15:13:15;14.20;99.90
37646;DHT22;23489;49.600;6.138;2023-03-21T15:15:42;14.30;99.90
37646;DHT22;23489;49.600;6.138;2023-03-21T15:18:12;14.30;99.90
37646;DHT22;23489;49.600;6.138;2023-03-21T15:20:39;14.30;99.90
37646;DHT22;23489;49.600;6.138;2023-03-21T15:23:11;14.30;99.90
37646;DHT22;23489;49.600;6.138;2023-03-21T15:25:40;14.30;99.90
37646;DHT22;23489;49.600;6.138;2023-03-21T15:28:06;14.40;99.90
37646;DHT22;23489;49.600;6.138;2023-03-21T15:30:33;14.30;99.90
37646;DHT22;23489;49.600;6.138;2023-03-21T15:33:06;14.30;99.90
37646;DHT22;23489;49.600;6.138;2023-03-21T15:35:36;14.20;99.90
37646;DHT22;23489;49.600;6.138;2023-03-21T15:38:03;14.30;99.90
37646;DHT22;23489;49.600;6.138;2023-03-21T15:40:31;14.30;99.90
37646;DHT22;23489;49.600;6.138;2023-03-21T15:43:17;14.20;99.90
37646;DHT22;23489;49.600;6.138;2023-03-21T15:45:48;14.20;99.90
37646;DHT22;23489;49.600;6.138;2023-03-21T15:48:15;14.00;99.90
37646;DHT22;23489;49.600;6.138;2023-03-21T15:50:46;13.90;99.90
37646;DHT22;23489;49.600;6.138;2023-03-21T15:53:16;13.80;99.90
37646;DHT22;23489;49.600;6.138;2023-03-21T15:55:50;13.80;99.90
37646;DHT22;23489;49.600;6.138;2023-03-21T15:58:22;13.80;99.90
37646;DHT22;23489;49.600;6.138;2023-03-21T16:00:54;13.70;99.90
37646;DHT22;23489;49.600;6.138;2023-03-21T16:03:23;13.70;99.90
37646;DHT22;23489;49.600;6.138;2023-03-21T16:06:07;13.60;99.90
37646;DHT22;23489;49.600;6.138;2023-03-21T16:08:50;13.60;99.90
37646;DHT22;23489;49.600;6.138;2023-03-21T16:13:51;13.50;99.90
37646;DHT22;23489;49.600;6.138;2023-03-21T16:16:21;13.50;99.90
37646;DHT22;23489;49.600;6.138;2023-03-21T16:18:48;13.50;99.90
37646;DHT22;23489;49.600;6.138;2023-03-21T16:21:16;13.50;99.90
37646;DHT22;23489;49.600;6.138;2023-03-21T16:23:42;13.50;99.90
37646;DHT22;23489;49.600;6.138;2023-03-21T16:26:23;13.50;99.90
37646;DHT22;23489;49.600;6.138;2023-03-21T16:28:50;13.50;99.90
37646;DHT22;23489;49.600;6.138;2023-03-21T16:31:22;13.50;99.90
37646;DHT22;23489;49.600;6.138;2023-03-21T16:33:48;13.60;99.90
37646;DHT22;23489;49.600;6.138;2023-03-21T16:38:46;13.70;99.90
37646;DHT22;23489;49.600;6.138;2023-03-21T16:41:15;13.70;99.90
37646;DHT22;23489;49.600;6.138;2023-03-21T16:43:42;13.70;99.90
37646;DHT22;23489;49.600;6.138;2023-03-21T16:48:43;13.60;99.90
37646;DHT22;23489;49.600;6.138;2023-03-21T16:51:16;13.50;99.90
37646;DHT22;23489;49.600;6.138;2023-03-21T16:53:43;13.30;99.90
37646;DHT22;23489;49.600;6.138;2023-03-21T16:56:17;13.20;99.90
37646;DHT22;23489;49.600;6.138;2023-03-21T16:58:43;13.10;99.90
37646;DHT22;23489;49.600;6.138;2023-03-21T17:01:19;13.00;99.90
37646;DHT22;23489;49.600;6.138;2023-03-21T17:03:46;12.90;99.90
37646;DHT22;23489;49.600;6.138;2023-03-21T17:06:14;12.80;99.90
37646;DHT22;23489;49.600;6.138;2023-03-21T17:08:40;12.80;99.90
37646;DHT22;23489;49.600;6.138;2023-03-21T17:11:12;12.80;99.90
37646;DHT22;23489;49.600;6.138;2023-03-21T17:13:41;12.70;99.90
37646;DHT22;23489;49.600;6.138;2023-03-21T17:16:12;12.70;99.90
37646;DHT22;23489;49.600;6.138;2023-03-21T17:18:38;12.70;99.90
37646;DHT22;23489;49.600;6.138;2023-03-21T17:21:20;12.70;99.90
37646;DHT22;23489;49.600;6.138;2023-03-21T17:23:46;12.60;99.90
37646;DHT22;23489;49.600;6.138;2023-03-21T17:26:13;12.60;99.90
37646;DHT22;23489;49.600;6.138;2023-03-21T17:28:40;12.60;99.90
37646;DHT22;23489;49.600;6.138;2023-03-21T17:31:12;12.50;99.90
37646;DHT22;23489;49.600;6.138;2023-03-21T17:33:38;12.50;99.90
37646;DHT22;23489;49.600;6.138;2023-03-21T17:36:04;12.40;99.90
37646;DHT22;23489;49.600;6.138;2023-03-21T17:38:30;12.40;99.90
37646;DHT22;23489;49.600;6.138;2023-03-21T17:40:56;12.30;99.90
37646;DHT22;23489;49.600;6.138;2023-03-21T17:43:24;12.30;99.90
37646;DHT22;23489;49.600;6.138;2023-03-21T17:45:49;12.30;99.90
37646;DHT22;23489;49.600;6.138;2023-03-21T17:48:15;12.30;99.90